Time;durP1;ratioP1;P1;durP2;ratioP2;P2;SDS_P1;SDS_P2;PMS_P1;PMS_P2;Temp;Humidity;BMP_temperature;BMP_pressure;BME280_temperature;BME280_humidity;BME280_pressure;Samples;Min_cycle;Max_cycle;Signal;HPM_P1;HPM_P2
2020/12/12 00:01:21;;;;;;;12.47;6.67;;;4.80;99.90;;;3.15;87.65;98867.31;4964628;28;20488;-40
2020/12/12 00:03:48;;;;;;;12.52;6.13;;;4.90;99.90;;;3.21;87.26;98860.28;4948376;28;20448;-40
2020/12/12 00:06:22;;;;;;;12.13;6.30;;;5.00;99.90;;;3.21;87.95;98857.56;4964232;28;20133;-40
2020/12/12 00:08:50;;;;;;;11.85;6.55;;;5.00;99.90;;;3.26;87.75;98857.75;4996500;28;20496;-40
2020/12/12 00:11:27;;;;;;;12.15;6.30;;;5.00;99.90;;;3.23;87.93;98855.50;4964661;28;20050;-40
2020/12/12 00:13:54;;;;;;;12.70;6.03;;;5.00;99.90;;;3.30;86.97;98856.28;4980307;28;20042;-40
2020/12/12 00:16:21;;;;;;;11.95;6.10;;;5.00;99.90;;;3.36;87.41;98848.38;4980111;28;20041;-40
2020/12/12 00:18:49;;;;;;;12.90;6.33;;;5.10;99.90;;;3.35;87.08;98865.59;4963954;28;20580;-40
2020/12/12 00:21:21;;;;;;;10.50;5.45;;;5.10;99.90;;;3.35;87.13;98857.50;4980422;28;20042;-40
2020/12/12 00:23:50;;;;;;;11.02;6.00;;;5.10;99.90;;;3.39;87.41;98856.03;4980686;28;20042;-40
2020/12/12 00:26:20;;;;;;;11.88;6.47;;;5.10;99.90;;;3.40;87.05;98857.69;4979746;28;20092;-40
2020/12/12 00:28:48;;;;;;;11.45;5.93;;;5.10;99.90;;;3.39;87.43;98864.13;4979749;28;20112;-40
2020/12/12 00:31:19;;;;;;;11.40;7.22;;;5.10;99.90;;;3.41;88.14;98868.28;4979870;28;20118;-40
2020/12/12 00:33:47;;;;;;;14.02;5.68;;;5.10;99.90;;;3.37;87.66;98860.81;4963500;28;20049;-40
2020/12/12 00:36:16;;;;;;;13.48;6.68;;;5.10;99.90;;;3.35;88.84;98860.22;4964070;28;20046;-40
2020/12/12 00:38:43;;;;;;;;;;;5.10;99.90;;;3.38;88.59;98866.00;4980396;28;20042;-40
2020/12/12 00:41:10;;;;;;;13.73;6.38;;;5.10;99.90;;;3.34;90.03;98861.25;4979749;28;19921;-40
2020/12/12 00:43:38;;;;;;;13.90;6.38;;;5.10;99.90;;;3.37;89.02;98866.22;4947627;28;20062;-40
2020/12/12 00:46:05;;;;;;;12.60;6.72;;;5.10;99.90;;;3.30;89.99;98858.97;4963634;28;20120;-40
2020/12/12 00:48:33;;;;;;;12.40;6.20;;;5.10;99.90;;;3.32;90.23;98864.16;4947773;28;20128;-40
2020/12/12 00:51:00;;;;;;;11.57;6.63;;;5.10;99.90;;;3.31;89.71;98866.03;4964029;28;20469;-40
2020/12/12 00:53:27;;;;;;;11.65;6.13;;;5.10;99.90;;;3.29;90.05;98870.81;4963251;28;20116;-40
2020/12/12 00:55:56;;;;;;;12.85;6.03;;;5.10;99.90;;;3.29;89.41;98873.50;4979710;28;20116;-40
2020/12/12 00:58:23;;;;;;;10.65;5.75;;;5.10;99.90;;;3.30;89.52;98868.91;4947488;28;20074;-40
2020/12/12 01:00:50;;;;;;;12.27;5.90;;;5.10;99.90;;;3.30;89.40;98877.84;4963692;28;20050;-40
2020/12/12 01:03:18;;;;;;;12.32;5.85;;;5.10;99.90;;;3.23;89.02;98881.59;4963193;28;20049;-40
2020/12/12 01:05:45;;;;;;;12.27;6.68;;;5.00;99.90;;;3.19;89.29;98878.53;4963293;28;20161;-40
2020/12/12 01:08:13;;;;;;;10.88;5.85;;;5.00;99.90;;;3.18;89.15;98879.53;4963216;28;20066;-40
2020/12/12 01:10:40;;;;;;;10.75;6.13;;;5.00;99.90;;;3.12;89.20;98885.78;4963175;28;20053;-40
2020/12/12 01:13:07;;;;;;;11.65;5.95;;;4.90;99.90;;;3.09;89.89;98886.19;4963291;28;20046;-40
2020/12/12 01:15:35;;;;;;;11.35;6.15;;;4.90;99.90;;;3.10;89.64;98885.16;4963072;28;20045;-40
2020/12/12 01:18:03;;;;;;;12.73;6.20;;;4.80;99.90;;;3.08;90.05;98885.38;4963336;28;20054;-40
2020/12/12 01:20:30;;;;;;;10.98;5.68;;;4.80;99.90;;;3.08;90.04;98880.00;4979426;28;20038;-40
2020/12/12 01:22:58;;;;;;;12.00;6.22;;;4.80;99.90;;;3.12;90.12;98885.78;4995221;28;20120;-40
2020/12/12 01:25:25;;;;;;;13.00;6.57;;;4.90;99.90;;;3.11;89.50;98887.66;4946794;28;20045;-40
2020/12/12 01:27:53;;;;;;;12.27;6.07;;;4.90;99.90;;;3.20;88.71;98890.97;4947086;28;20136;-40
2020/12/12 01:30:21;;;;;;;13.00;6.40;;;4.90;99.90;;;3.19;88.86;98897.38;4947234;28;20124;-40
2020/12/12 01:32:49;;;;;;;12.07;5.78;;;5.00;99.90;;;3.22;88.61;98907.75;4962395;28;20069;-40
2020/12/12 01:35:16;;;;;;;11.85;6.07;;;4.90;99.90;;;3.22;88.82;98906.91;4978518;28;20073;-40
2020/12/12 01:37:43;;;;;;;11.13;6.07;;;5.00;99.90;;;3.24;89.01;98904.81;4962749;28;20049;-40
2020/12/12 01:40:12;;;;;;;13.57;6.03;;;5.00;99.90;;;3.31;88.65;98902.94;4962780;28;20049;-40
2020/12/12 01:42:40;;;;;;;11.73;5.75;;;5.10;99.90;;;3.41;87.83;98903.31;4946833;28;20078;-40
2020/12/12 01:45:09;;;;;;;14.00;6.38;;;5.10;99.90;;;3.43;87.84;98908.50;4946919;28;20405;-40
2020/12/12 01:47:38;;;;;;;12.68;5.43;;;5.10;99.90;;;3.48;87.18;98906.00;4978650;28;20052;-40
2020/12/12 01:50:07;;;;;;;11.07;5.40;;;5.20;99.90;;;3.58;87.58;98900.97;4978406;28;20062;-40
2020/12/12 01:52:36;;;;;;;10.60;5.85;;;5.20;99.90;;;3.59;87.46;98901.81;4994533;28;20038;-40
2020/12/12 01:55:04;;;;;;;11.27;5.95;;;5.30;99.90;;;3.62;87.00;98912.16;4978178;28;20535;-40
2020/12/12 01:57:31;;;;;;;11.10;5.80;;;5.30;99.90;;;3.56;87.91;98904.91;4962878;28;20053;-40
2020/12/12 01:59:58;;;;;;;11.65;6.13;;;5.30;99.90;;;3.66;87.14;98907.16;4962682;28;20048;-40
2020/12/12 02:02:27;;;;;;;10.27;5.70;;;5.40;99.90;;;3.67;86.60;98909.66;4962518;28;20054;-40
2020/12/12 02:04:56;;;;;;;9.63;5.30;;;5.40;99.90;;;3.71;86.62;98910.03;4978123;28;20065;-40
2020/12/12 02:07:24;;;;;;;;;;;5.40;99.90;;;3.70;86.71;98911.91;4963030;28;20050;-40
2020/12/12 02:09:51;;;;;;;10.88;5.22;;;5.40;99.90;;;3.66;87.06;98904.47;4978129;28;19927;-40
2020/12/12 02:12:19;;;;;;;11.32;5.50;;;5.40;99.90;;;3.73;86.72;98910.69;4962577;28;20044;-40
2020/12/12 02:14:46;;;;;;;9.68;5.35;;;5.40;99.90;;;3.72;86.44;98912.53;4946078;28;20062;-40
2020/12/12 02:17:13;;;;;;;10.10;5.57;;;5.40;99.90;;;3.79;87.00;98911.66;4994258;28;20046;-40
2020/12/12 02:19:41;;;;;;;9.13;5.20;;;5.50;99.90;;;3.79;86.28;98904.41;4962341;28;20100;-40
2020/12/12 02:22:10;;;;;;;9.68;5.00;;;5.50;99.90;;;3.76;86.73;98901.31;4978647;28;20108;-40
2020/12/12 02:24:37;;;;;;;9.40;5.38;;;5.50;99.90;;;3.79;87.03;98912.50;5011666;28;20443;-40
2020/12/12 02:27:08;;;;;;;9.57;5.43;;;5.50;99.90;;;3.83;86.32;98912.88;4962459;28;20077;-40
2020/12/12 02:32:14;;;;;;;10.02;5.32;;;5.50;99.90;;;3.79;87.14;98911.66;4979487;28;20046;-40
2020/12/12 02:34:44;;;;;;;9.35;5.03;;;5.50;99.90;;;3.84;87.24;98917.25;4962216;28;20141;-40
2020/12/12 02:37:12;;;;;;;10.55;5.35;;;5.50;99.90;;;3.83;86.69;98921.81;4977947;28;20042;-40
2020/12/12 02:39:40;;;;;;;8.10;4.50;;;5.60;99.90;;;3.84;86.15;98918.06;4946361;28;20054;-40
2020/12/12 02:42:07;;;;;;;10.27;4.80;;;5.50;99.90;;;3.84;86.98;98919.94;4946739;28;20050;-40
2020/12/12 02:44:35;;;;;;;10.57;5.60;;;5.60;99.90;;;3.82;86.37;98916.63;4965769;28;21020;-40
2020/12/12 02:47:02;;;;;;;10.00;5.78;;;5.50;99.90;;;3.82;87.45;98917.47;4966008;28;20582;-40
2020/12/12 02:49:30;;;;;;;9.83;5.70;;;5.50;99.90;;;3.87;86.44;98911.44;4966099;28;20510;-40
2020/12/12 02:51:58;;;;;;;10.68;5.70;;;5.60;99.90;;;3.88;87.15;98919.31;4966335;28;20463;-40
2020/12/12 02:54:25;;;;;;;12.23;5.65;;;5.60;99.90;;;3.85;86.70;98914.34;4933892;28;20069;-40
2020/12/12 02:56:53;;;;;;;10.13;5.13;;;5.60;99.90;;;3.91;86.40;98915.34;4965787;28;20050;-40
2020/12/12 02:59:20;;;;;;;10.95;5.65;;;5.60;99.90;;;3.87;86.73;98920.34;4966188;28;20041;-40
2020/12/12 03:01:47;;;;;;;10.57;5.95;;;5.60;99.90;;;3.93;86.80;98931.31;4965778;28;20045;-40
2020/12/12 03:04:14;;;;;;;11.57;5.80;;;5.60;99.90;;;3.93;86.77;98924.06;4965554;28;20459;-40
2020/12/12 03:06:44;;;;;;;10.88;5.55;;;5.60;99.90;;;3.93;86.36;98931.31;4949528;28;20049;-41
2020/12/12 03:09:12;;;;;;;10.00;5.50;;;5.60;99.90;;;3.91;87.28;98936.09;4966695;28;20046;-40
2020/12/12 03:11:39;;;;;;;9.25;5.60;;;5.60;99.90;;;3.99;86.04;98935.88;4965702;28;20523;-40
2020/12/12 03:14:07;;;;;;;9.80;5.18;;;5.70;99.90;;;3.93;86.72;98931.31;4949232;28;20057;-40
2020/12/12 03:16:34;;;;;;;10.75;5.35;;;5.70;99.90;;;4.08;85.85;98936.41;4949337;28;20034;-40
2020/12/12 03:19:02;;;;;;;8.80;5.15;;;5.70;99.90;;;4.02;86.29;98938.13;4966138;28;20389;-40
2020/12/12 03:21:29;;;;;;;10.77;5.53;;;5.80;99.90;;;4.08;85.78;98937.25;4965329;28;20038;-40
2020/12/12 03:23:57;;;;;;;10.90;5.65;;;5.80;99.90;;;4.06;86.57;98941.22;4965394;28;20133;-40
2020/12/12 03:26:25;;;;;;;11.40;5.78;;;5.80;99.90;;;4.08;86.31;98941.81;4965177;28;20041;-40
2020/12/12 03:28:53;;;;;;;9.88;5.53;;;5.80;99.90;;;4.14;85.58;98944.50;4981456;28;20072;-40
2020/12/12 03:31:21;;;;;;;8.60;4.97;;;5.90;99.90;;;4.14;85.88;98940.97;4964892;28;20067;-40
2020/12/12 03:33:48;;;;;;;10.73;5.72;;;5.80;99.90;;;4.11;86.09;98947.63;4948999;28;20053;-40
2020/12/12 03:36:16;;;;;;;11.00;5.78;;;5.80;99.90;;;4.14;85.53;98939.09;4949309;28;20129;-41
2020/12/12 03:38:43;;;;;;;8.93;5.80;;;5.80;99.90;;;4.10;86.18;98947.81;4965171;28;20054;-41
2020/12/12 03:41:11;;;;;;;10.32;4.90;;;5.80;99.90;;;4.08;86.27;98958.00;4965290;28;20115;-40
2020/12/12 03:43:39;;;;;;;10.02;5.43;;;5.80;99.90;;;4.09;86.13;98949.72;4964719;28;20065;-41
2020/12/12 03:46:07;;;;;;;11.45;5.88;;;5.80;99.90;;;4.14;86.61;98957.16;4965120;28;20120;-40
2020/12/12 03:48:34;;;;;;;9.95;4.78;;;5.80;99.90;;;4.17;86.13;98951.34;4948851;28;20037;-40
2020/12/12 03:51:01;;;;;;;10.80;5.77;;;5.90;99.90;;;4.10;85.66;98956.75;4949004;28;20054;-40
2020/12/12 03:53:29;;;;;;;9.73;5.13;;;5.90;99.90;;;4.15;86.04;98958.84;4948513;28;20077;-40
2020/12/12 03:55:56;;;;;;;13.33;5.60;;;5.80;99.90;;;4.13;86.29;98960.91;4964120;28;20444;-41
2020/12/12 03:58:23;;;;;;;9.23;5.35;;;5.80;99.90;;;4.20;86.22;98966.25;4948974;28;20046;-40
2020/12/12 04:00:51;;;;;;;10.52;5.68;;;5.90;99.90;;;4.18;86.49;98972.69;4948993;28;20049;-41
2020/12/12 04:03:18;;;;;;;12.87;5.50;;;5.90;99.90;;;4.24;86.08;98968.31;4964374;28;20069;-40
2020/12/12 04:05:46;;;;;;;10.10;5.38;;;5.90;99.90;;;4.21;85.97;98971.44;4980360;28;20875;-40
2020/12/12 04:08:14;;;;;;;10.73;5.85;;;5.90;99.90;;;4.22;85.66;98977.66;4980849;28;20462;-40
2020/12/12 04:10:50;;;;;;;11.82;5.90;;;5.90;99.90;;;4.25;86.22;98975.38;4966825;28;20042;-41
2020/12/12 04:13:17;;;;;;;10.85;5.88;;;5.90;99.90;;;4.27;85.88;98978.69;4948467;28;20136;-40
2020/12/12 04:15:45;;;;;;;10.85;6.10;;;6.00;99.90;;;4.24;85.79;98989.06;4964404;28;20531;-41
2020/12/12 04:18:13;;;;;;;;;;;6.00;99.90;;;4.26;86.13;98984.31;4965197;28;20041;-40
2020/12/12 04:20:40;;;;;;;9.95;5.60;;;6.00;99.90;;;4.25;86.09;98982.66;4996621;28;19921;-40
2020/12/12 04:23:07;;;;;;;11.65;5.70;;;5.90;99.90;;;4.23;86.03;98984.72;4980149;28;20046;-40
2020/12/12 04:25:35;;;;;;;11.38;5.88;;;5.90;99.90;;;4.20;86.83;98993.25;4932206;28;20053;-40
2020/12/12 04:28:03;;;;;;;11.23;6.15;;;5.90;99.90;;;4.17;87.86;98984.53;4948562;28;20475;-40
2020/12/12 04:30:30;;;;;;;11.38;6.13;;;5.90;99.90;;;4.15;88.27;98992.03;4948441;28;20048;-40
2020/12/12 04:32:57;;;;;;;12.73;6.30;;;5.90;99.90;;;4.13;87.85;98994.13;4948034;28;20049;-40
2020/12/12 04:35:25;;;;;;;11.47;6.30;;;5.90;99.90;;;4.15;89.02;98997.44;4963854;28;20511;-40
2020/12/12 04:37:53;;;;;;;11.55;5.50;;;5.90;99.90;;;4.16;88.72;98990.19;4965399;28;20053;-40
2020/12/12 04:40:21;;;;;;;12.00;6.78;;;5.90;99.90;;;4.11;88.73;98996.22;4964220;28;20129;-40
2020/12/12 04:42:51;;;;;;;12.75;6.63;;;5.80;99.90;;;4.05;89.15;98993.53;4948187;28;20068;-40
2020/12/12 04:45:21;;;;;;;14.13;7.32;;;5.80;99.90;;;4.03;90.05;99002.69;4979496;28;20076;-40
2020/12/12 04:47:50;;;;;;;14.55;6.50;;;5.80;99.90;;;4.03;90.50;98996.47;4995622;28;20115;-40
2020/12/12 04:50:28;;;;;;;13.52;6.88;;;5.70;99.90;;;4.05;90.36;99005.16;4979654;28;20514;-40
2020/12/12 04:53:14;;;;;;;11.83;6.53;;;5.80;99.90;;;4.01;90.82;99007.47;4966241;28;20408;-40
2020/12/12 04:55:46;;;;;;;14.05;7.15;;;5.70;99.90;;;4.02;90.27;99002.91;4979372;28;20443;-40
2020/12/12 04:58:19;;;;;;;12.90;6.63;;;5.80;99.90;;;4.02;90.20;99001.00;4947562;28;20061;-40
2020/12/12 05:00:50;;;;;;;13.82;7.03;;;5.80;99.90;;;3.99;90.82;99008.72;4979346;28;20073;-40
2020/12/12 05:03:22;;;;;;;16.73;7.93;;;5.70;99.90;;;3.97;90.70;99005.38;4995268;28;20116;-40
2020/12/12 05:05:49;;;;;;;14.27;6.95;;;5.70;99.90;;;3.97;91.50;99005.38;4962554;28;20567;-40
2020/12/12 05:08:17;;;;;;;15.13;7.65;;;5.70;99.90;;;3.94;91.37;99009.38;4947498;28;20532;-40
2020/12/12 05:10:48;;;;;;;12.98;7.40;;;5.70;99.90;;;3.92;91.84;99007.91;4979243;28;20045;-40
2020/12/12 05:13:28;;;;;;;13.43;6.75;;;5.70;99.90;;;3.89;91.94;99012.69;4963132;28;20069;-40
2020/12/12 05:15:59;;;;;;;17.48;7.93;;;5.60;99.90;;;3.90;92.18;99013.53;4980568;28;20077;-40
2020/12/12 05:18:28;;;;;;;14.63;7.38;;;5.60;99.90;;;3.89;92.14;99014.56;4995113;28;20050;-40
2020/12/12 05:20:55;;;;;;;15.75;8.07;;;5.60;99.90;;;3.88;92.03;99019.13;4979097;28;20041;-40
2020/12/12 05:23:25;;;;;;;17.02;7.30;;;5.60;99.90;;;3.87;92.52;99022.88;4962957;28;20079;-40
2020/12/12 05:25:55;;;;;;;14.13;7.32;;;5.60;99.90;;;3.87;92.67;99017.47;4995145;28;20424;-40
2020/12/12 05:28:24;;;;;;;15.38;7.70;;;5.60;99.90;;;3.88;92.21;99027.22;4962932;28;20041;-40
2020/12/12 05:30:53;;;;;;;16.30;8.35;;;5.60;99.90;;;3.89;92.25;99026.19;4946859;28;20570;-40
2020/12/12 05:33:25;;;;;;;17.92;7.82;;;5.60;99.90;;;3.89;92.72;99020.78;4978492;28;20416;-40
2020/12/12 05:35:54;;;;;;;16.00;8.00;;;5.70;99.90;;;3.86;92.70;99032.00;4978941;28;20419;-40
2020/12/12 05:38:22;;;;;;;18.73;8.35;;;5.60;99.90;;;3.88;92.26;99032.63;4978957;28;20062;-40
2020/12/12 05:40:54;;;;;;;14.93;7.72;;;5.60;99.90;;;3.92;92.90;99034.88;4963076;28;20534;-40
2020/12/12 05:43:35;;;;;;;18.17;8.25;;;5.60;99.90;;;3.89;92.56;99036.97;4978603;28;20050;-40
2020/12/12 05:46:03;;;;;;;16.83;7.82;;;5.70;99.90;;;3.90;93.00;99045.91;5010756;28;20046;-40
2020/12/12 05:48:30;;;;;;;;;;;5.60;99.90;;;3.93;93.28;99039.25;4947356;28;20049;-40
2020/12/12 05:50:57;;;;;;;14.98;8.20;;;5.60;99.90;;;3.91;93.03;99044.88;4994603;28;19972;-40
2020/12/12 05:53:25;;;;;;;16.17;8.20;;;5.70;99.90;;;3.86;93.18;99042.81;4946504;28;20038;-40
2020/12/12 05:55:56;;;;;;;20.88;8.60;;;5.60;99.90;;;3.89;93.37;99045.06;4962533;28;20050;-40
2020/12/12 05:58:24;;;;;;;19.17;9.35;;;5.60;99.90;;;3.89;93.73;99050.47;4978892;28;20424;-40
2020/12/12 06:00:53;;;;;;;19.17;8.65;;;5.60;99.90;;;3.88;93.53;99048.81;4931113;28;20361;-40
2020/12/12 06:03:30;;;;;;;21.23;9.27;;;5.60;99.90;;;3.88;94.06;99054.22;4978594;28;20520;-40
2020/12/12 06:06:05;;;;;;;18.02;8.75;;;5.60;99.90;;;3.91;93.32;99049.44;4979455;28;20072;-40
2020/12/12 06:08:37;;;;;;;21.63;8.65;;;5.60;99.90;;;3.91;93.56;99057.53;4994257;28;20057;-40
2020/12/12 06:11:08;;;;;;;17.67;8.15;;;5.70;99.90;;;3.85;93.76;99060.03;4994312;28;20042;-40
2020/12/12 06:13:38;;;;;;;15.85;8.18;;;5.60;99.90;;;3.89;93.56;99061.25;4962383;28;20038;-40
2020/12/12 06:16:08;;;;;;;17.52;8.63;;;5.60;99.90;;;3.89;93.97;99069.34;4962629;28;20524;-40
2020/12/12 06:18:55;;;;;;;18.88;9.05;;;5.60;99.90;;;3.92;94.14;99061.88;4994344;28;20411;-40
2020/12/12 06:21:23;;;;;;;20.65;9.82;;;5.60;99.90;;;3.87;94.18;99070.63;4994154;28;20046;-40
2020/12/12 06:23:50;;;;;;;;;;;5.60;99.90;;;3.89;94.28;99069.34;4995082;28;20046;-40
2020/12/12 06:26:35;;;;;;;19.58;9.00;;;5.60;99.90;;;3.89;93.79;99076.63;4946095;28;19921;-40
2020/12/12 06:29:02;;;;;;;18.10;8.80;;;5.60;99.90;;;3.87;94.64;99076.03;4961916;28;20570;-40
2020/12/12 06:31:36;;;;;;;15.40;8.20;;;5.60;99.90;;;3.88;94.20;99081.19;4946175;28;20038;-40
2020/12/12 06:34:04;;;;;;;19.27;8.50;;;5.60;99.90;;;3.89;94.68;99082.03;4977773;28;20467;-40
2020/12/12 06:36:34;;;;;;;16.88;9.07;;;5.60;99.90;;;3.88;94.36;99089.28;4961947;28;20038;-40
2020/12/12 06:39:23;;;;;;;18.77;9.05;;;5.60;99.90;;;3.95;94.59;99088.44;4977977;28;20046;-40
2020/12/12 06:41:55;;;;;;;20.67;9.52;;;5.70;99.90;;;3.91;94.64;99096.13;4994218;28;20045;-40
2020/12/12 06:44:33;;;;;;;17.80;8.27;;;5.60;99.90;;;3.92;94.26;99099.66;4961770;28;20100;-40
2020/12/12 06:47:02;;;;;;;17.15;8.93;;;5.70;99.90;;;3.88;94.46;99104.66;4993953;28;20132;-40
2020/12/12 06:49:30;;;;;;;16.70;8.18;;;5.60;99.90;;;3.90;95.03;99099.88;4962115;28;20045;-40
2020/12/12 06:51:58;;;;;;;17.50;9.00;;;5.60;99.90;;;3.91;94.66;99108.78;4946341;28;20419;-40
2020/12/12 06:54:25;;;;;;;20.83;8.80;;;5.60;99.90;;;3.88;94.86;99105.47;4993616;28;20542;-40
2020/12/12 06:56:53;;;;;;;19.50;9.15;;;5.60;99.90;;;3.99;95.23;99116.69;4978241;28;20058;-40
2020/12/12 06:59:35;;;;;;;17.42;8.80;;;5.70;99.90;;;3.96;94.30;99123.31;4946326;28;20057;-40
2020/12/12 07:02:06;;;;;;;18.13;8.70;;;5.70;99.90;;;4.01;95.17;99128.09;5011790;28;20042;-40
2020/12/12 07:04:37;;;;;;;17.83;8.60;;;5.70;99.90;;;3.98;94.67;99131.22;4977460;28;20069;-40
2020/12/12 07:07:09;;;;;;;18.17;8.27;;;5.70;99.90;;;3.96;94.95;99127.88;4961584;28;20128;-40
2020/12/12 07:09:40;;;;;;;18.88;8.55;;;5.70;99.90;;;3.94;94.65;99136.19;4993686;28;20120;-40
2020/12/12 07:12:09;;;;;;;18.17;8.68;;;5.70;99.90;;;3.98;94.65;99139.31;4977811;28;20157;-40
2020/12/12 07:14:38;;;;;;;16.85;7.82;;;5.70;99.90;;;3.97;94.87;99146.56;4977397;28;20532;-40
2020/12/12 07:17:06;;;;;;;18.50;8.88;;;5.70;99.90;;;3.96;94.20;99150.28;4978053;28;20523;-40
2020/12/12 07:19:39;;;;;;;18.58;8.65;;;5.70;99.90;;;4.03;94.69;99158.38;4961914;28;20096;-40
2020/12/12 07:22:11;;;;;;;17.55;8.63;;;5.70;99.90;;;4.02;94.86;99162.94;5011467;28;20046;-40
2020/12/12 07:24:39;;;;;;;17.60;8.48;;;5.80;99.90;;;3.98;94.32;99156.31;5011163;28;20093;-40
2020/12/12 07:27:07;;;;;;;17.17;8.77;;;5.70;99.90;;;4.01;94.58;99163.16;4945984;28;20038;-40
2020/12/12 07:29:34;;;;;;;19.35;8.77;;;5.70;99.90;;;3.99;94.97;99157.16;4962918;28;20121;-40
2020/12/12 07:32:01;;;;;;;19.83;9.50;;;5.70;99.90;;;3.97;94.27;99168.16;4965078;28;20062;-40
2020/12/12 07:34:29;;;;;;;20.93;9.23;;;5.70;99.90;;;4.02;94.49;99172.94;4997305;28;20038;-41
2020/12/12 07:37:09;;;;;;;21.60;8.77;;;5.70;99.90;;;4.00;94.69;99177.72;4981140;28;20483;-40
2020/12/12 07:39:46;;;;;;;18.60;8.10;;;5.70;99.90;;;4.05;94.64;99180.59;4965128;28;20131;-40
2020/12/12 07:42:13;;;;;;;19.17;8.48;;;5.80;99.90;;;4.07;94.08;99183.91;4997452;28;20479;-40
2020/12/12 07:44:56;;;;;;;19.25;8.75;;;5.80;99.90;;;4.08;94.13;99190.13;4964678;28;20042;-40
2020/12/12 07:47:24;;;;;;;16.50;8.95;;;5.80;99.90;;;4.08;94.42;99188.28;5014328;28;20046;-40
2020/12/12 07:50:02;;;;;;;17.10;8.40;;;5.80;99.90;;;4.12;94.48;99196.78;4965110;28;20058;-40
2020/12/12 07:52:29;;;;;;;19.67;8.57;;;5.80;99.90;;;4.06;93.86;99193.06;4996977;28;20042;-40
2020/12/12 07:57:39;;;;;;;18.90;8.48;;;5.80;99.90;;;4.06;94.63;99205.69;5014173;28;20053;-40
2020/12/12 08:00:10;;;;;;;18.75;8.52;;;5.80;99.90;;;4.13;94.56;99207.38;4997539;28;20455;-40
2020/12/12 08:02:40;;;;;;;17.52;8.38;;;5.80;99.90;;;4.11;94.48;99217.53;4965437;28;20054;-40
2020/12/12 08:05:08;;;;;;;17.67;8.25;;;5.80;99.90;;;4.11;94.75;99222.94;4996494;28;20046;-40
2020/12/12 08:07:36;;;;;;;20.73;8.60;;;5.80;99.90;;;4.16;94.25;99228.53;4964188;28;20137;-40
2020/12/12 08:10:05;;;;;;;;;;;5.90;99.90;;;4.21;94.31;99224.38;4980663;28;20137;-40
2020/12/12 08:12:34;;;;;;;17.48;7.72;;;5.90;99.90;;;4.22;94.54;99228.72;4996807;28;20343;-40
2020/12/12 08:15:17;;;;;;;18.23;8.57;;;5.90;99.90;;;4.29;94.23;99229.56;4996244;28;20038;-40
2020/12/12 08:17:44;;;;;;;17.88;8.40;;;5.90;99.90;;;4.28;94.37;99244.94;5013738;28;20069;-41
2020/12/12 08:20:15;;;;;;;17.45;8.38;;;6.00;99.90;;;4.27;94.35;99237.88;5014053;28;20049;-40
2020/12/12 08:22:45;;;;;;;18.23;8.27;;;6.00;99.90;;;4.29;94.33;99245.78;4996400;28;20491;-40
2020/12/12 08:25:12;;;;;;;16.60;8.10;;;6.00;99.90;;;4.32;94.55;99253.44;4995877;28;20124;-40
2020/12/12 08:27:40;;;;;;;16.48;8.40;;;6.00;99.90;;;4.30;94.54;99259.03;4980214;28;20057;-40
2020/12/12 08:30:08;;;;;;;16.20;7.78;;;6.00;99.90;;;4.28;93.69;99266.53;4996236;28;20112;-40
2020/12/12 08:32:39;;;;;;;20.77;8.57;;;6.00;99.90;;;4.28;93.69;99268.41;4996533;28;20050;-41
2020/12/12 08:35:30;;;;;;;16.15;7.68;;;6.00;99.90;;;4.29;94.12;99273.59;4996098;28;20133;-41
2020/12/12 08:38:11;;;;;;;16.38;8.40;;;6.00;99.90;;;4.25;94.01;99277.75;5013467;28;20052;-41
2020/12/12 08:40:50;;;;;;;15.02;7.53;;;6.00;99.90;;;4.31;93.95;99278.78;4979461;28;20052;-40
2020/12/12 08:43:17;;;;;;;19.25;8.73;;;6.00;99.90;;;4.35;94.00;99280.03;5013398;28;20046;-40
2020/12/12 08:45:57;;;;;;;17.98;8.90;;;6.00;99.90;;;4.23;93.36;99265.47;4979969;28;20511;-40
2020/12/12 08:48:36;;;;;;;18.23;8.43;;;6.00;99.90;;;4.37;94.05;99286.03;5013434;28;20056;-40
2020/12/12 08:51:06;;;;;;;16.75;8.38;;;6.10;99.90;;;4.43;93.97;99290.59;4979597;28;20088;-40
2020/12/12 08:53:36;;;;;;;16.73;8.10;;;6.10;99.90;;;4.42;93.75;99288.94;5013248;28;20042;-40
2020/12/12 08:56:15;;;;;;;17.55;8.73;;;6.10;99.90;;;4.41;93.39;99297.28;4979261;28;20044;-40
2020/12/12 08:58:46;;;;;;;15.30;7.75;;;6.10;99.90;;;4.41;93.71;99300.78;4996041;28;20046;-40
2020/12/12 09:01:22;;;;;;;15.15;7.68;;;6.10;99.90;;;4.44;93.86;99303.06;5013014;28;20129;-40
2020/12/12 09:04:02;;;;;;;18.75;8.43;;;6.10;99.90;;;4.45;93.88;99304.72;4995520;28;20431;-40
2020/12/12 09:06:41;;;;;;;16.50;7.53;;;6.10;99.90;;;4.48;93.87;99314.28;4979207;28;20052;-40
2020/12/12 09:09:14;;;;;;;17.77;8.50;;;6.20;99.90;;;4.50;93.92;99314.91;4979260;28;20057;-40
2020/12/12 09:11:45;;;;;;;16.17;8.07;;;6.20;99.90;;;4.51;94.61;99315.72;4995391;28;20128;-40
2020/12/12 09:14:14;;;;;;;17.65;9.00;;;6.20;99.90;;;4.52;94.08;99320.13;5012532;28;20050;-40
2020/12/12 09:16:54;;;;;;;16.17;8.65;;;6.20;99.90;;;4.54;94.54;99318.03;4995742;28;20073;-40
2020/12/12 09:19:23;;;;;;;;;;;6.20;99.90;;;4.52;93.90;99329.03;5013321;28;20125;-41
2020/12/12 09:21:52;;;;;;;18.90;8.87;;;6.20;99.90;;;4.52;93.92;99330.91;4979015;28;19928;-40
2020/12/12 09:24:22;;;;;;;17.00;8.25;;;6.20;99.90;;;4.51;93.80;99340.03;4994924;28;20132;-40
2020/12/12 09:26:53;;;;;;;15.60;8.68;;;6.20;99.90;;;4.54;94.75;99345.03;5012780;28;20137;-41
2020/12/12 09:29:21;;;;;;;18.13;8.88;;;6.20;99.90;;;4.52;94.20;99347.94;4979023;28;20053;-40
2020/12/12 09:31:51;;;;;;;21.27;9.27;;;6.20;99.90;;;4.56;94.39;99356.47;4947107;28;20066;-40
2020/12/12 09:34:19;;;;;;;17.80;8.20;;;6.20;99.90;;;4.57;94.58;99358.94;4978607;28;20049;-40
2020/12/12 09:36:48;;;;;;;18.42;8.50;;;6.20;99.90;;;4.54;94.32;99350.44;4994880;28;20049;-40
2020/12/12 09:39:16;;;;;;;14.32;7.40;;;6.20;99.90;;;4.59;94.62;99364.16;4947141;28;20465;-40
2020/12/12 09:41:43;;;;;;;17.83;8.25;;;6.20;99.90;;;4.62;94.56;99363.72;4979035;28;20049;-40
2020/12/12 09:44:11;;;;;;;15.43;8.23;;;6.30;99.90;;;4.65;93.90;99367.91;4947045;28;20069;-40
2020/12/12 09:46:38;;;;;;;14.70;6.90;;;6.30;99.90;;;4.67;94.30;99361.22;4994875;28;20042;-40
2020/12/12 09:49:06;;;;;;;16.05;7.70;;;6.30;99.90;;;4.74;93.91;99372.03;4962762;28;20492;-40
2020/12/12 09:51:33;;;;;;;15.98;7.72;;;6.40;99.90;;;4.79;94.53;99366.81;4994366;28;20092;-41
2020/12/12 09:54:00;;;;;;;15.80;7.57;;;6.40;99.90;;;4.78;93.95;99375.16;4994065;28;20073;-40
2020/12/12 09:56:28;;;;;;;15.30;7.95;;;6.40;99.90;;;4.81;93.69;99377.44;4994884;28;20042;-41
2020/12/12 09:58:55;;;;;;;14.10;7.60;;;6.40;99.90;;;4.82;94.03;99390.72;4962855;28;20034;-41
2020/12/12 10:01:22;;;;;;;14.80;7.40;;;6.50;99.90;;;4.86;93.94;99391.97;4962579;28;20042;-40
2020/12/12 10:03:50;;;;;;;14.95;7.68;;;6.50;99.90;;;4.88;93.51;99389.88;4962516;28;20148;-40
2020/12/12 10:06:17;;;;;;;15.20;7.25;;;6.50;99.90;;;4.90;93.90;99393.19;4962510;28;20463;-40
2020/12/12 10:08:43;;;;;;;17.45;7.65;;;6.60;99.90;;;4.93;94.09;99391.97;4978456;28;20045;-41
2020/12/12 10:11:11;;;;;;;12.13;7.07;;;6.60;99.90;;;4.92;94.03;99394.88;5012054;28;20042;-41
2020/12/12 10:13:38;;;;;;;14.50;7.53;;;6.60;99.90;;;4.92;94.26;99394.88;4978412;28;20042;-41
2020/12/12 10:16:06;;;;;;;14.50;7.45;;;6.60;99.90;;;4.96;94.05;99398.81;4978614;28;20444;-40
2020/12/12 10:18:33;;;;;;;15.73;7.45;;;6.60;99.90;;;4.96;93.70;99396.94;4978321;28;20049;-40
2020/12/12 10:21:00;;;;;;;15.52;7.85;;;6.60;99.90;;;4.99;93.48;99401.91;4962244;28;20132;-40
2020/12/12 10:23:27;;;;;;;15.57;8.20;;;6.70;99.90;;;5.03;93.43;99410.44;4962220;28;20516;-40
2020/12/12 10:25:55;;;;;;;14.52;7.35;;;6.60;99.90;;;5.05;94.00;99402.97;4978661;28;20490;-40
2020/12/12 10:28:22;;;;;;;13.43;7.10;;;6.70;99.90;;;5.06;93.55;99406.50;4994473;28;20052;-41
2020/12/12 10:30:49;;;;;;;14.82;7.45;;;6.70;99.90;;;5.07;93.46;99410.88;4962120;28;20042;-41
2020/12/12 10:33:16;;;;;;;14.52;6.95;;;6.70;99.90;;;5.12;93.58;99411.88;5011415;28;20046;-41
2020/12/12 10:35:43;;;;;;;15.63;7.45;;;6.80;99.90;;;5.14;93.52;99407.09;4962379;28;20045;-41
2020/12/12 10:38:12;;;;;;;16.60;8.35;;;6.80;99.90;;;5.22;93.61;99406.03;5043004;23;20133;-38
2020/12/12 10:40:42;;;;;;;15.75;8.18;;;6.80;99.90;;;5.32;93.45;99411.00;4988781;28;20411;-38
2020/12/12 10:43:09;;;;;;;16.90;7.75;;;6.90;99.90;;;5.40;93.55;99412.66;4994007;28;20053;-37